createdAt,value
2022-11-01T00:03:52.524Z,12.80
2022-11-01T00:07:54.470Z,12.70
2022-11-01T00:11:56.360Z,12.70
2022-11-01T00:15:58.262Z,12.80
2022-11-01T00:20:00.253Z,12.80
2022-11-01T00:24:02.147Z,12.80
2022-11-01T00:28:04.509Z,12.80
2022-11-01T00:32:07.093Z,12.80
2022-11-01T00:36:09.237Z,12.90
2022-11-01T00:40:11.837Z,12.90
2022-11-01T00:44:13.674Z,12.90
2022-11-01T00:48:15.465Z,12.80
2022-11-01T00:52:17.401Z,12.80
2022-11-01T00:56:19.307Z,12.80
2022-11-01T01:00:21.233Z,12.80
2022-11-01T01:04:25.843Z,12.70
2022-11-01T01:08:28.188Z,12.60
2022-11-01T01:12:30.339Z,12.60
2022-11-01T01:16:35.097Z,12.60
2022-11-01T01:20:37.263Z,12.50
2022-11-01T01:24:45.455Z,12.50
2022-11-01T01:28:54.044Z,12.40
2022-11-01T01:32:59.166Z,12.40
2022-11-01T01:37:01.101Z,12.40
2022-11-01T01:41:21.934Z,12.40
2022-11-01T01:45:34.419Z,12.40
2022-11-01T01:49:38.697Z,12.40
2022-11-01T01:53:50.674Z,12.40
2022-11-01T01:57:52.780Z,12.40
2022-11-01T02:01:54.806Z,12.40
2022-11-01T02:06:17.207Z,12.40
2022-11-01T02:10:21.943Z,12.40
2022-11-01T02:14:23.831Z,12.40
2022-11-01T02:18:38.120Z,12.40
2022-11-01T02:23:32.469Z,12.30
2022-11-01T02:28:05.028Z,12.30
2022-11-01T02:32:20.805Z,12.30
2022-11-01T02:36:31.349Z,12.20
2022-11-01T02:41:03.642Z,12.20
2022-11-01T02:45:11.070Z,12.20
2022-11-01T02:49:19.399Z,12.20
2022-11-01T02:53:21.361Z,12.20
2022-11-01T02:57:28.443Z,12.20
2022-11-01T03:02:07.880Z,12.10
2022-11-01T03:06:35.464Z,12.20
2022-11-01T03:11:14.346Z,12.10
2022-11-01T03:15:47.748Z,12.10
2022-11-01T03:20:22.810Z,12.10
2022-11-01T03:24:35.579Z,12.10
2022-11-01T03:28:45.242Z,12.10
2022-11-01T03:32:49.465Z,12.10
2022-11-01T03:37:11.555Z,12.00
2022-11-01T03:41:15.201Z,12.00
2022-11-01T03:45:20.803Z,12.00
2022-11-01T03:49:22.696Z,12.00
2022-11-01T03:59:16.415Z,12.00
2022-11-01T04:03:18.251Z,12.00
2022-11-01T04:07:20.147Z,11.90
2022-11-01T04:11:21.974Z,11.90
2022-11-01T04:15:43.074Z,11.90
2022-11-01T04:20:23.130Z,11.90
2022-11-01T04:24:24.909Z,11.80
2022-11-01T04:28:26.815Z,11.80
2022-11-01T04:32:28.611Z,11.70
2022-11-01T04:36:30.540Z,11.70
2022-11-01T04:40:33.053Z,11.70
2022-11-01T04:44:34.843Z,11.60
2022-11-01T04:48:36.668Z,11.60
2022-11-01T04:52:38.446Z,11.60
2022-11-01T04:56:40.319Z,11.60
2022-11-01T05:00:44.042Z,11.50
2022-11-01T05:04:45.938Z,11.40
2022-11-01T05:08:47.793Z,11.40
2022-11-01T05:12:49.605Z,11.30
2022-11-01T05:16:51.461Z,11.20
2022-11-01T05:20:53.285Z,11.20
2022-11-01T05:24:55.087Z,11.20
2022-11-01T05:28:56.990Z,11.20
2022-11-01T05:32:59.903Z,11.10
2022-11-01T05:37:01.887Z,11.10
2022-11-01T05:41:04.372Z,11.10
2022-11-01T05:45:07.085Z,11.10
2022-11-01T05:49:09.011Z,11.10
2022-11-01T05:53:10.935Z,11.00
2022-11-01T05:57:12.841Z,11.10
2022-11-01T06:01:17.207Z,11.10
2022-11-01T06:05:19.164Z,11.00
2022-11-01T06:09:21.133Z,11.10
2022-11-01T06:13:23.026Z,11.10
2022-11-01T06:17:27.797Z,11.10
2022-11-01T06:21:30.489Z,11.10
2022-11-01T06:25:36.694Z,11.10
2022-11-01T06:29:38.713Z,11.10
2022-11-01T06:33:40.504Z,11.10
2022-11-01T06:37:42.592Z,11.10
2022-11-01T06:41:44.469Z,11.20
2022-11-01T06:45:49.264Z,11.30
2022-11-01T06:49:51.119Z,11.40
2022-11-01T06:53:52.950Z,11.40
2022-11-01T06:57:56.271Z,11.60
2022-11-01T07:01:58.291Z,11.70
2022-11-01T07:06:03.513Z,11.80
2022-11-01T07:10:05.995Z,12.00
2022-11-01T07:14:07.772Z,12.00
2022-11-01T07:18:09.898Z,12.10
2022-11-01T07:22:11.726Z,12.20
2022-11-01T07:26:13.597Z,12.30
2022-11-01T07:30:15.686Z,12.30
2022-11-01T07:34:17.587Z,12.40
2022-11-01T07:38:19.873Z,12.60
2022-11-01T07:42:21.739Z,12.80
2022-11-01T07:46:23.849Z,13.00
2022-11-01T07:50:25.779Z,13.10
2022-11-01T07:54:27.623Z,13.20
2022-11-01T07:58:29.663Z,13.40
2022-11-01T08:02:31.534Z,13.60
2022-11-01T08:06:33.449Z,13.60
2022-11-01T08:10:35.523Z,13.90
2022-11-01T08:14:37.382Z,14.10
2022-11-01T08:18:39.274Z,14.10
2022-11-01T08:22:41.240Z,14.20
2022-11-01T08:26:43.410Z,14.40
2022-11-01T08:30:46.590Z,14.50
2022-11-01T08:34:48.829Z,14.40
2022-11-01T08:38:50.623Z,14.60
2022-11-01T08:42:52.481Z,14.60
2022-11-01T08:47:05.039Z,14.60
2022-11-01T08:51:07.162Z,14.90
2022-11-01T08:55:26.887Z,15.10
2022-11-01T09:00:04.414Z,15.20
2022-11-01T09:04:07.602Z,15.20
2022-11-01T09:08:09.444Z,15.30
2022-11-01T09:12:14.660Z,15.40
2022-11-01T09:16:17.163Z,15.50
2022-11-01T09:20:19.592Z,15.50
2022-11-01T09:24:21.533Z,15.60
2022-11-01T09:28:23.587Z,15.80
2022-11-01T09:32:29.233Z,15.90
2022-11-01T09:36:31.189Z,16.00
2022-11-01T09:40:39.099Z,16.20
2022-11-01T09:44:44.126Z,16.30
2022-11-01T09:48:46.357Z,16.30
2022-11-01T09:52:50.097Z,16.40
2022-11-01T09:57:05.993Z,16.40
2022-11-01T10:02:09.521Z,16.40
2022-11-01T10:06:52.120Z,16.40
2022-11-01T10:11:02.735Z,16.50
2022-11-01T10:15:22.810Z,16.50
2022-11-01T10:19:26.264Z,16.40
2022-11-01T10:23:48.508Z,16.40
2022-11-01T10:28:13.336Z,16.40
2022-11-01T10:32:41.771Z,16.60
2022-11-01T10:36:45.116Z,16.60
2022-11-01T10:40:51.594Z,16.70
2022-11-01T10:44:56.000Z,16.70
2022-11-01T10:49:01.463Z,16.90
2022-11-01T10:53:07.129Z,16.90
2022-11-01T10:57:12.729Z,17.10
2022-11-01T11:01:19.429Z,17.10
2022-11-01T11:05:21.441Z,17.20
2022-11-01T11:09:35.783Z,17.20
2022-11-01T11:13:38.131Z,17.30
2022-11-01T11:17:42.641Z,17.20
2022-11-01T11:21:45.012Z,17.20
2022-11-01T11:25:46.980Z,17.30
2022-11-01T11:30:09.020Z,17.50
2022-11-01T11:34:19.788Z,17.60
2022-11-01T11:38:40.014Z,17.70
2022-11-01T11:42:41.930Z,17.50
2022-11-01T11:46:56.800Z,17.60
2022-11-01T11:51:05.887Z,17.60
2022-11-01T11:55:43.653Z,17.60
2022-11-01T12:04:07.809Z,17.60
2022-11-01T12:08:25.429Z,17.60
2022-11-01T12:12:32.517Z,17.70
2022-11-01T12:16:41.440Z,18.00
2022-11-01T12:20:43.943Z,18.10
2022-11-01T12:24:50.528Z,18.10
2022-11-01T12:29:38.649Z,18.10
2022-11-01T12:33:45.853Z,18.30
2022-11-01T12:38:06.240Z,18.70
2022-11-01T12:42:08.449Z,18.90
2022-11-01T12:46:19.301Z,19.00
2022-11-01T12:50:42.928Z,19.20
2022-11-01T12:55:15.331Z,19.20
2022-11-01T12:59:40.068Z,19.30
2022-11-01T13:04:08.201Z,19.40
2022-11-01T13:08:55.497Z,19.40
2022-11-01T13:13:49.489Z,19.40
2022-11-01T13:18:00.707Z,19.40
2022-11-01T13:22:21.406Z,19.50
2022-11-01T13:26:50.692Z,19.50
2022-11-01T13:31:13.197Z,19.50
2022-11-01T13:35:58.998Z,19.40
2022-11-01T13:46:19.031Z,18.50
2022-11-01T13:51:04.003Z,18.20
2022-11-01T13:55:22.883Z,18.10
2022-11-01T13:59:38.074Z,18.00
2022-11-01T14:03:40.143Z,17.90
2022-11-01T14:07:44.976Z,18.00
2022-11-01T14:12:00.413Z,18.10
2022-11-01T14:16:19.470Z,18.30
2022-11-01T14:20:31.580Z,18.40
2022-11-01T14:24:35.435Z,18.50
2022-11-01T14:28:51.086Z,18.50
2022-11-01T14:33:01.472Z,18.50
2022-11-01T14:37:11.678Z,18.50
2022-11-01T14:41:16.419Z,18.50
2022-11-01T14:45:45.684Z,18.50
2022-11-01T14:49:50.225Z,18.40
2022-11-01T14:54:22.777Z,18.40
2022-11-01T15:04:27.463Z,18.20
2022-11-01T15:08:32.892Z,18.20
2022-11-01T15:12:48.058Z,18.10
2022-11-01T15:16:53.648Z,18.00
2022-11-01T15:25:28.205Z,17.90
2022-11-01T15:29:30.715Z,17.90
2022-11-01T15:33:41.261Z,17.80
2022-11-01T15:37:58.803Z,17.70
2022-11-01T15:42:35.174Z,17.60
2022-11-01T15:47:39.777Z,17.40
2022-11-01T15:52:49.205Z,17.30
2022-11-01T15:58:27.614Z,17.30
2022-11-01T16:02:05.884Z,17.20
2022-11-01T16:07:13.232Z,16.50
2022-11-01T16:11:27.848Z,16.00
2022-11-01T16:15:38.710Z,15.70
2022-11-01T16:19:56.941Z,15.60
2022-11-01T16:24:34.340Z,15.50
2022-11-01T16:28:43.332Z,15.30
2022-11-01T16:32:51.650Z,15.00
2022-11-01T16:41:39.608Z,14.40
2022-11-01T16:45:43.253Z,14.20
2022-11-01T16:49:50.401Z,14.20
2022-11-01T16:53:53.346Z,14.10
2022-11-01T16:57:55.533Z,14.00
2022-11-01T17:01:58.586Z,13.90
2022-11-01T17:06:00.690Z,13.80
2022-11-01T17:10:14.393Z,13.70
2022-11-01T17:14:17.510Z,13.60
2022-11-01T17:18:29.261Z,13.50
2022-11-01T17:22:34.811Z,13.40
2022-11-01T17:26:36.767Z,13.40
2022-11-01T17:30:50.292Z,13.30
2022-11-01T17:34:53.806Z,13.20
2022-11-01T17:38:55.659Z,13.20
2022-11-01T17:43:14.514Z,13.10
2022-11-01T17:47:18.897Z,13.10
2022-11-01T17:52:38.587Z,13.00
2022-11-01T18:06:20.917Z,12.80
2022-11-01T18:10:35.677Z,12.80
2022-11-01T18:21:12.466Z,12.70
2022-11-01T18:25:32.927Z,12.70
2022-11-01T18:29:39.954Z,12.60
2022-11-01T18:34:08.910Z,12.50
2022-11-01T18:38:52.457Z,12.50
2022-11-01T18:42:54.631Z,12.40
2022-11-01T18:47:42.045Z,12.20
2022-11-01T18:51:44.784Z,12.20
2022-11-01T18:55:52.106Z,12.10
2022-11-01T20:56:12.665Z,11.10
2022-11-01T21:05:25.837Z,11.10
2022-11-01T21:10:02.929Z,11.00
2022-11-01T22:34:00.394Z,10.70
2022-11-01T22:38:19.202Z,10.70
2022-11-01T22:42:21.195Z,10.70
2022-11-01T22:46:57.946Z,10.60
2022-11-01T22:51:14.010Z,10.60
2022-11-01T22:55:28.352Z,10.70
2022-11-01T22:59:33.903Z,10.80
2022-11-01T23:03:39.853Z,10.80
2022-11-01T23:07:53.353Z,10.90
2022-11-01T23:12:32.826Z,10.90
2022-11-01T23:16:39.919Z,10.50
2022-11-01T23:20:41.938Z,10.20
2022-11-01T23:24:44.006Z,10.10
2022-11-01T23:29:01.221Z,10.00
2022-11-01T23:33:03.574Z,10.00
2022-11-01T23:37:12.878Z,9.90
2022-11-01T23:41:27.536Z,9.90
2022-11-01T23:45:38.565Z,9.80
2022-11-01T23:49:40.448Z,9.80
2022-11-01T23:53:42.400Z,9.80
2022-11-01T23:57:44.236Z,9.80
